Data for 05/14/2008

Time Sea-Level Adjusted Pressure Absolute Pressure Temperature Relative Humidity Dew Point   
(mb) (inHg) (mb) (inHg) (C) (F) (%) (C) (F)
00:05 1017 30.03 847 25.01 8.1 46.5 74 3.8 38.8
00:10 1017 30.03 847 25.01 8 46.4 74 3.7 38.6
00:15 1017 30.03 847 25.01 8 46.4 75 3.8 38.9
00:20 1017 30.03 847 25.01 8 46.3 76 3.9 39.1
00:25 1017 30.03 847 25.01 8 46.4 75 3.9 39
00:30 1017 30.03 847 25.01 7.9 46.3 76 3.9 39
00:35 1017 30.03 847 25.01 7.9 46.2 76 3.9 39
00:40 1017 30.03 847 25.01 7.8 46.1 78 4.2 39.6
00:45 1018 30.06 847 25.01 7.8 46 79 4.3 39.7
00:50 1017 30.03 847 25.01 7.7 45.9 78 4.1 39.4
00:55 1017 30.03 847 25.01 7.7 45.9 78 4.2 39.6
01:00 1017 30.03 847 25.01 7.8 46 78 4.3 39.7
01:05 1018 30.06 847 25.01 7.7 45.9 79 4.3 39.7
01:10 1018 30.06 847 25.01 7.6 45.7 79 4.3 39.7
01:15 1018 30.06 847 25.01 7.5 45.6 80 4.2 39.6
01:20 1018 30.06 847 25.01 7.6 45.6 79 4.2 39.5
01:25 1018 30.06 847 25.01 7.6 45.6 79 4.2 39.6
01:30 1018 30.06 847 25.01 7.5 45.5 78 4 39.2
01:35 1018 30.06 847 25.01 7.5 45.5 78 3.8 38.9
01:40 1018 30.06 847 25.01 7.5 45.4 78 3.8 38.9
01:45 1018 30.06 847 25.01 7.4 45.4 78 3.8 38.8
01:50 1018 30.06 847 25.01 7.4 45.3 78 3.8 38.9
01:55 1018 30.06 847 25.01 7.3 45.2 79 3.9 39
02:00 1018 30.06 847 25.01 7.2 45 79 3.9 39
02:05 1018 30.06 847 25.01 7.2 44.9 80 3.9 39.1
02:10 1018 30.06 847 25.01 7.1 44.7 81 4 39.1
02:15 1018 30.06 847 25.01 7 44.6 81 4 39.2
02:20 1018 30.06 847 25.01 6.9 44.4 81 4 39.1
02:25 1018 30.06 847 25.01 6.9 44.3 82 4 39.2
02:30 1018 30.06 847 25.01 6.8 44.3 83 4.1 39.4
02:35 1018 30.06 847 25.01 6.8 44.2 83 4.1 39.5
02:40 1018 30.06 847 25.01 6.8 44.2 84 4.2 39.5
02:45 1018 30.06 847 25.01 6.7 44 84 4.1 39.4
02:50 1018 30.06 847 25.01 6.6 43.9 84 4.1 39.4
02:55 1018 30.06 847 25.01 6.6 43.9 84 4.1 39.3
03:00 1018 30.06 847 25.01 6.5 43.8 84 4 39.2
03:05 1018 30.06 847 25.01 6.5 43.7 84 4 39.2
03:10 1018 30.06 847 25.01 6.4 43.5 85 4 39.2
03:15 1018 30.06 847 25.01 6.3 43.4 85 4 39.1
03:20 1018 30.06 847 25.01 6.3 43.3 85 4 39.2
03:25 1018 30.06 847 25.01 6.3 43.3 86 4.1 39.3
03:30 1018 30.06 847 25.01 6.1 43 86 4 39.2
03:35 1018 30.06 847 25.01 6.1 43 86 3.9 39
03:40 1018 30.06 847 25.01 6.2 43.1 86 4 39.1
03:45 1018 30.06 847 25.01 6.1 43 87 4 39.3
03:50 1018 30.06 847 25.01 6 42.8 87 3.9 39.1
03:55 1018 30.06 847 25.01 6 42.8 86 3.9 38.9
04:00 1018 30.06 847 25.01 6 42.8 86 3.9 39
04:05 1018 30.06 847 25.01 5.9 42.7 86 3.9 38.9
04:10 1018 30.06 847 25.01 6 42.7 86 3.7 38.7
04:15 1018 30.06 847 25.01 6 42.8 85 3.7 38.6
04:20 1018 30.06 847 25.01 6.1 43 84 3.5 38.4
04:25 1018 30.06 847 25.01 6.1 43 84 3.6 38.5
04:30 1018 30.06 847 25.01 6.2 43.1 84 3.6 38.5
04:35 1018 30.06 847 25.01 6.2 43.1 84 3.7 38.6
04:40 1018 30.06 847 25.01 6.2 43.2 84 3.8 38.8
04:45 1018 30.06 847 25.01 6.4 43.6 84 3.9 39
04:50 1018 30.06 847 25.01 6.6 43.8 83 4 39.2
04:55 1018 30.06 847 25.01 6.6 43.8 84 4 39.3
05:00 1018 30.06 847 25.01 6.5 43.8 84 4.1 39.4
05:05 1018 30.06 847 25.01 6.5 43.7 85 4.1 39.3
05:10 1018 30.06 847 25.01 6.5 43.6 84 4 39.2
05:15 1018 30.06 847 25.01 6.6 43.9 84 4 39.2
05:20 1018 30.06 847 25.01 6.7 44.1 83 4.1 39.4
05:25 1018 30.06 847 25.01 6.6 43.8 84 4.1 39.4
05:30 1018 30.06 847 25.01 6.5 43.6 85 4.1 39.3
05:35 1018 30.06 847 25.01 6.5 43.8 84 4 39.3
05:40 1018 30.06 847 25.01 6.7 44 83 4 39.2
05:45 1018 30.06 847 25.01 6.8 44.2 83 4 39.2
05:50 1018 30.06 847 25.01 6.7 44.1 83 4.1 39.3
05:55 1018 30.06 847 25.01 6.7 44.1 83 4.1 39.3
06:00 1018 30.06 847 25.01 6.7 44.1 83 4.1 39.4
06:05 1018 30.06 847 25.01 6.8 44.2 83 4 39.3
06:10 1018 30.06 848 25.04 6.8 44.3 82 4 39.2
06:15 1019 30.09 848 25.04 7 44.6 82 4 39.3
06:20 1019 30.09 848 25.04 7.1 44.8 82 4.3 39.7
06:25 1019 30.09 848 25.04 7.1 44.8 83 4.3 39.8
06:30 1019 30.09 848 25.04 7 44.6 83 4.4 39.9
06:35 1019 30.09 848 25.04 7 44.6 84 4.5 40
06:40 1019 30.09 848 25.04 7.1 44.7 83 4.5 40
06:45 1019 30.09 848 25.04 7.1 44.7 84 4.6 40.2
06:50 1019 30.09 848 25.04 7 44.6 85 4.7 40.4
06:55 1019 30.09 848 25.04 6.9 44.4 86 4.7 40.4
07:00 1019 30.09 849 25.07 6.8 44.2 86 4.6 40.3
07:05 1019 30.09 849 25.07 6.8 44.2 86 4.7 40.4
07:10 1020 30.12 849 25.07 6.8 44.3 86 4.7 40.5
07:15 1020 30.12 849 25.07 6.8 44.3 86 4.7 40.4
07:20 1020 30.12 849 25.07 6.9 44.4 86 4.7 40.5
07:25 1020 30.12 849 25.07 7 44.6 86 4.8 40.7
07:30 1020 30.12 849 25.07 7 44.6 86 4.8 40.6
07:35 1020 30.12 849 25.07 7.1 44.7 86 4.8 40.7
07:40 1020 30.12 849 25.07 7.1 44.8 86 4.9 40.7
07:45 1020 30.12 849 25.07 7.1 44.8 86 4.9 40.8
07:50 1020 30.12 849 25.07 7.2 44.9 86 4.9 40.9
07:55 1020 30.12 849 25.07 7.1 44.8 86 4.9 40.7
08:00 1020 30.12 849 25.07 7.1 44.7 86 4.8 40.7
08:05 1020 30.12 849 25.07 7.1 44.7 87 5 40.9
08:10 1020 30.12 849 25.07 7 44.6 87 5 41
08:15 1020 30.12 849 25.07 7 44.7 87 5.1 41.1
08:20 1020 30.12 850 25.1 7 44.6 88 5.2 41.3
08:25 1020 30.12 850 25.1 6.9 44.4 88 5 41
08:30 1020 30.12 850 25.1 6.7 44.1 88 4.9 40.8
08:35 1021 30.15 850 25.1 6.7 44.1 89 4.9 40.9
08:40 1021 30.15 850 25.1 6.7 44.1 89 5 41.1
08:45 1021 30.15 850 25.1 6.8 44.3 89 5.1 41.2
08:50 1021 30.15 850 25.1 7 44.5 88 5.1 41.3
08:55 1021 30.15 850 25.1 7 44.7 88 5.2 41.4
09:00 1021 30.15 850 25.1 7.2 45 88 5.4 41.7
09:05 1021 30.15 850 25.1 7.3 45.2 88 5.4 41.8
09:10 1021 30.15 850 25.1 7.4 45.3 87 5.4 41.8
09:15 1021 30.15 850 25.1 7.5 45.5 88 5.6 42
09:20 1021 30.15 850 25.1 7.6 45.6 88 5.7 42.2
09:25 1021 30.15 850 25.1 7.5 45.6 88 5.6 42.2
09:30 1021 30.15 850 25.1 7.4 45.4 88 5.6 42.2
09:35 1021 30.15 850 25.1 7.4 45.3 89 5.7 42.2
09:40 1021 30.15 850 25.1 7.5 45.5 89 5.8 42.5
09:45 1021 30.15 850 25.1 7.6 45.8 88 5.8 42.5
09:50 1021 30.15 850 25.1 7.7 45.8 88 5.9 42.6
09:55 1021 30.15 851 25.13 7.7 45.9 88 5.9 42.6
10:00 1021 30.15 851 25.13 7.7 45.8 88 5.8 42.4
10:05 1021 30.15 851 25.13 7.6 45.7 88 5.8 42.5
10:10 1021 30.15 851 25.13 7.7 45.8 87 5.7 42.2
10:15 1021 30.15 851 25.13 7.4 45.3 88 5.6 42
10:20 1022 30.18 851 25.13 7.1 44.7 89 5.4 41.7
10:25 1022 30.18 851 25.13 6.9 44.4 91 5.4 41.8
10:30 1022 30.18 851 25.13 6.8 44.2 92 5.5 41.9
10:35 1022 30.18 851 25.13 6.9 44.4 91 5.6 42
10:40 1021 30.15 851 25.13 6.9 44.5 93 5.8 42.5
10:45 1021 30.15 851 25.13 7.2 44.9 92 6 42.8
10:50 1022 30.18 851 25.13 7.2 45 92 5.9 42.7
10:55 1022 30.18 851 25.13 7.4 45.2 90 5.7 42.3
11:00 1022 30.18 851 25.13 7.4 45.4 89 5.8 42.4
11:05 1022 30.18 851 25.13 7.6 45.6 89 5.9 42.6
11:10 1022 30.18 851 25.13 7.7 45.9 87 5.8 42.4
11:15 1021 30.15 851 25.13 7.9 46.1 86 5.7 42.3
11:20 1022 30.18 851 25.13 7.9 46.3 85 5.5 41.9
11:25 1021 30.15 851 25.13 8.1 46.5 84 5.5 42
11:30 1021 30.15 851 25.13 8.3 47 84 5.7 42.3
11:35 1021 30.15 851 25.13 8.5 47.4 83 5.9 42.6
11:40 1022 30.18 851 25.13 8.5 47.2 83 5.7 42.2
11:45 1022 30.18 851 25.13 8.6 47.4 82 5.7 42.2
11:50 1022 30.18 851 25.13 8.6 47.4 81 5.6 42
11:55 1022 30.18 851 25.13 8.7 47.7 81 5.6 42.1
12:00 1022 30.18 851 25.13 8.7 47.6 78 5.1 41.2
12:05 1022 30.18 851 25.13 8.9 47.9 78 5.3 41.6
12:10 1022 30.18 851 25.13 9 48.3 77 5.2 41.4
12:15 1022 30.18 851 25.13 9.4 48.8 75 5.2 41.4
12:20 1022 30.18 851 25.13 9.5 49 76 5.5 41.9
12:25 1022 30.18 851 25.13 9.9 49.7 74 5.4 41.7
12:30 1022 30.18 851 25.13 9.9 49.8 71 5 41
12:35 1022 30.18 851 25.13 9.8 49.7 73 5.2 41.3
12:40 1022 30.18 851 25.13 9.9 49.8 72 5.2 41.3
12:45 1022 30.18 851 25.13 10.1 50.1 72 5.2 41.3
12:50 1022 30.18 851 25.13 10.1 50.1 71 5 41
12:55 1022 30.18 851 25.13 10 50 71 5 41
13:00 1022 30.18 851 25.13 9.9 49.8 75 5.6 42
13:05 1022 30.18 851 25.13 8.4 47.1 84 5.8 42.5
13:10 1022 30.18 851 25.13 8 46.4 86 5.8 42.5
13:15 1022 30.18 851 25.13 7.9 46.2 88 6 42.8
13:20 1022 30.18 852 25.16 7.9 46.3 89 6.3 43.3
13:25 1022 30.18 851 25.13 8.1 46.6 90 6.5 43.8
13:30 1022 30.18 851 25.13 8.1 46.6 90 6.5 43.7
13:35 1022 30.18 851 25.13 7.5 45.5 92 6.3 43.3
13:40 1022 30.18 852 25.16 7.6 45.6 93 6.6 43.8
13:45 1022 30.18 852 25.16 7.5 45.5 93 6.5 43.7
13:50 1022 30.18 852 25.16 7.4 45.3 94 6.5 43.8
13:55 1023 30.21 852 25.16 7.6 45.8 95 6.9 44.4
14:00 1023 30.21 852 25.16 7.9 46.3 95 7.1 44.8
14:05 1023 30.21 852 25.16 7.8 46.1 93 6.8 44.3
14:10 1023 30.21 852 25.16 7.7 45.9 93 6.7 44.1
14:15 1022 30.18 852 25.16 7.6 45.8 94 6.7 44.1
14:20 1022 30.18 852 25.16 8 46.4 93 7 44.5
14:25 1022 30.18 852 25.16 8.3 46.9 91 6.8 44.3
14:30 1022 30.18 852 25.16 8 46.4 93 6.9 44.5
14:35 1023 30.21 852 25.16 8.9 48.1 91 7.5 45.6
14:40 1023 30.21 852 25.16 9.5 49 89 7.8 46
14:45 1023 30.21 852 25.16 9.4 48.9 86 7.2 45
14:50 1023 30.21 852 25.16 9 48.3 88 7.1 44.8
14:55 1023 30.21 852 25.16 9 48.2 88 7.2 45
15:00 1023 30.21 852 25.16 9 48.2 88 7.2 44.9
15:05 1023 30.21 852 25.16 9.1 48.4 88 7.3 45.1
15:10 1023 30.21 852 25.16 9.6 49.2 88 7.8 46
15:15 1023 30.21 852 25.16 10.5 50.8 85 8.1 46.6
15:20 1023 30.21 852 25.16 10.9 51.6 84 8.4 47.1
15:25 1023 30.21 852 25.16 11.1 52 83 8.3 47
15:30 1023 30.21 852 25.16 10.9 51.6 79 7.5 45.5
15:35 1023 30.21 852 25.16 10.3 50.6 80 7.1 44.8
15:40 1023 30.21 852 25.16 9.8 49.6 84 7.2 45
15:45 1023 30.21 852 25.16 9.7 49.4 83 6.9 44.5
15:50 1023 30.21 852 25.16 9.7 49.5 84 7.2 45
15:55 1023 30.21 852 25.16 10.4 50.7 78 6.7 44.1
16:00 1023 30.21 852 25.16 10.3 50.6 79 6.8 44.3
16:05 1023 30.21 852 25.16 10.5 50.9 79 7.1 44.8
16:10 1023 30.21 852 25.16 10.7 51.3 79 7.3 45.1
16:15 1023 30.21 852 25.16 11.2 52.1 78 7.5 45.5
16:20 1023 30.21 852 25.16 11.5 52.8 75 7.3 45.2
16:25 1023 30.21 852 25.16 10.7 51.2 79 7.2 45
16:30 1023 30.21 852 25.16 10.6 51 76 6.6 43.8
16:35 1023 30.21 852 25.16 10.7 51.2 75 6.5 43.7
16:40 1023 30.21 852 25.16 10.5 50.9 74 6 42.8
16:45 1023 30.21 852 25.16 10.6 51.1 76 6.6 43.8
16:50 1023 30.21 852 25.16 10.7 51.2 77 6.8 44.2
16:55 1023 30.21 852 25.16 10.6 51.1 76 6.6 43.8
17:00 1023 30.21 852 25.16 10.2 50.4 76 6.2 43.2
17:05 1023 30.21 852 25.16 10.3 50.5 76 6.2 43.2
17:10 1023 30.21 852 25.16 10.2 50.3 77 6.2 43.2
17:15 1023 30.21 852 25.16 10 50 77 6.2 43.2
17:20 1023 30.21 852 25.16 9.9 49.9 77 6.1 43
17:25 1023 30.21 852 25.16 9.7 49.5 80 6.5 43.8
17:30 1023 30.21 852 25.16 9.6 49.4 82 6.7 44
17:35 1023 30.21 852 25.16 9.6 49.3 84 7 44.6
17:40 1023 30.21 852 25.16 9.5 49.1 83 6.7 44.1
17:45 1023 30.21 852 25.16 9.6 49.3 83 6.9 44.4
17:50 1023 30.21 852 25.16 9.7 49.5 81 6.6 43.9
17:55 1023 30.21 852 25.16 9.6 49.3 82 6.6 44
18:00 1023 30.21 852 25.16 9.7 49.5 81 6.6 43.9
18:05 1023 30.21 852 25.16 9.8 49.7 80 6.6 43.8
18:10 1023 30.21 852 25.16 9.9 49.8 81 6.7 44.1
18:15 1023 30.21 852 25.16 10 50 79 6.6 43.9
18:20 1023 30.21 852 25.16 9.8 49.7 79 6.4 43.5
18:25 1023 30.21 852 25.16 9.8 49.6 81 6.6 43.9
18:30 1023 30.21 852 25.16 9.9 49.8 81 6.8 44.2
18:35 1023 30.21 852 25.16 9.9 49.8 82 6.9 44.4
18:40 1023 30.21 852 25.16 10.1 50.2 81 7 44.7
18:45 1023 30.21 852 25.16 10.4 50.8 79 7 44.6
18:50 1023 30.21 852 25.16 10.4 50.7 79 6.9 44.4
18:55 1023 30.21 852 25.16 10.3 50.6 77 6.5 43.7
19:00 1023 30.21 852 25.16 10.3 50.5 77 6.5 43.7
19:05 1023 30.21 852 25.16 10.3 50.5 77 6.4 43.5
19:10 1023 30.21 852 25.16 10.2 50.3 77 6.4 43.6
19:15 1023 30.21 852 25.16 10 49.9 79 6.5 43.6
19:20 1023 30.21 852 25.16 10 49.9 79 6.6 43.9
19:25 1023 30.21 852 25.16 9.9 49.9 80 6.6 43.9
19:30 1023 30.21 853 25.19 9.9 49.7 80 6.6 43.9
19:35 1023 30.21 853 25.19 9.6 49.3 81 6.5 43.7
19:40 1023 30.21 853 25.19 9.5 49 82 6.6 43.9
19:45 1024 30.24 853 25.19 9.4 48.9 84 6.8 44.2
19:50 1023 30.21 853 25.19 9.3 48.8 84 6.9 44.3
19:55 1024 30.24 853 25.19 9.2 48.6 85 6.9 44.4
20:00 1024 30.24 853 25.19 9.4 49 85 7.1 44.8
20:05 1024 30.24 853 25.19 9.6 49.2 86 7.3 45.1
20:10 1024 30.24 853 25.19 9.4 48.8 86 7.2 44.9
20:15 1024 30.24 853 25.19 9.3 48.7 86 7 44.6
20:20 1024 30.24 853 25.19 9.1 48.4 84 6.6 43.9
20:25 1024 30.24 853 25.19 9.1 48.3 85 6.7 44.1
20:30 1024 30.24 853 25.19 9.2 48.5 85 6.7 44.1
20:35 1024 30.24 853 25.19 9.3 48.7 83 6.6 43.9
20:40 1024 30.24 853 25.19 9.2 48.5 83 6.5 43.7
20:45 1024 30.24 853 25.19 9.1 48.4 83 6.4 43.6
20:50 1024 30.24 853 25.19 9.2 48.6 83 6.6 43.8
20:55 1024 30.24 853 25.19 9.2 48.6 84 6.6 44
21:00 1024 30.24 853 25.19 9.3 48.7 84 6.7 44
21:05 1024 30.24 853 25.19 9.3 48.7 84 6.7 44.1
21:10 1024 30.24 853 25.19 9.3 48.7 83 6.6 43.9
21:15 1024 30.24 854 25.22 9.3 48.7 83 6.6 43.9
21:20 1024 30.24 854 25.22 9.1 48.4 84 6.6 43.8
21:25 1025 30.27 854 25.22 9 48.2 85 6.6 43.9
21:30 1025 30.27 854 25.22 8.8 47.8 87 6.7 44.1
21:35 1025 30.27 854 25.22 8.6 47.5 88 6.8 44.2
21:40 1025 30.27 854 25.22 8.5 47.3 89 6.9 44.4
21:45 1025 30.27 854 25.22 8.6 47.4 90 7.1 44.8
21:50 1025 30.27 854 25.22 8.5 47.3 91 7.1 44.9
21:55 1025 30.27 854 25.22 8.5 47.2 92 7.2 45
22:00 1025 30.27 854 25.22 8.5 47.2 92 7.3 45.1
22:05 1025 30.27 854 25.22 8.5 47.3 93 7.4 45.3
22:10 1025 30.27 854 25.22 8.5 47.3 93 7.5 45.5
22:15 1025 30.27 854 25.22 8.5 47.3 94 7.5 45.6
22:20 1025 30.27 855 25.25 8.4 47.1 94 7.5 45.6
22:25 1025 30.27 855 25.25 8.2 46.8 95 7.4 45.4
22:30 1026 30.3 855 25.25 8.1 46.6 95 7.4 45.3
22:35 1026 30.3 855 25.25 8 46.3 96 7.3 45.1
22:40 1026 30.3 855 25.25 7.8 46 96 7.2 44.9
22:45 1026 30.3 855 25.25 7.7 45.9 96 7.1 44.9
22:50 1026 30.3 855 25.25 7.8 46.1 96 7.2 44.9
22:55 1026 30.3 855 25.25 7.8 46.1 96 7.2 45
23:00 1026 30.3 855 25.25 7.8 46.1 96 7.2 45
23:05 1026 30.3 855 25.25 8 46.3 96 7.3 45.2
23:10 1026 30.3 855 25.25 8 46.5 95 7.3 45.1
23:15 1026 30.3 855 25.25 8.2 46.7 94 7.2 45
23:20 1026 30.3 855 25.25 8.3 47 93 7.3 45.2
23:25 1026 30.3 855 25.25 8.5 47.2 93 7.4 45.4
23:30 1026 30.3 855 25.25 8.6 47.4 93 7.5 45.4
23:35 1026 30.3 855 25.25 8.6 47.4 92 7.3 45.2
23:40 1026 30.3 855 25.25 8.6 47.4 91 7.2 45
23:45 1026 30.3 855 25.25 8.6 47.5 90 7.1 44.9
23:50 1026 30.3 855 25.25 8.7 47.6 90 7.1 44.8
23:55 1026 30.3 856 25.28 8.7 47.6 89 6.9 44.5
24:00 1026 30.3 856 25.28 8.7 47.6 89 6.9 44.4